Time;durP1;ratioP1;P1;durP2;ratioP2;P2;SDS_P1;SDS_P2;PMS_P1;PMS_P2;Temp;Humidity;BMP_temperature;BMP_pressure;BME280_temperature;BME280_humidity;BME280_pressure;Samples;Min_cycle;Max_cycle;Signal;HPM_P1;HPM_P2
2024/01/11 00:01:11;;;;;;;26.90;13.05;;;;;;;-5.04;100.00;103114.72;5071871;28;20123;-46
2024/01/11 00:03:40;;;;;;;24.75;12.90;;;;;;;-5.02;100.00;103109.63;5071958;28;20102;-48
2024/01/11 00:06:09;;;;;;;24.33;12.02;;;;;;;-4.97;100.00;103121.81;5072034;28;20045;-46
2024/01/11 00:08:38;;;;;;;23.77;11.65;;;;;;;-4.99;100.00;103120.00;5071694;28;20052;-46
2024/01/11 00:11:06;;;;;;;24.95;11.68;;;;;;;-5.00;100.00;103121.69;5071925;28;20468;-46
2024/01/11 00:13:34;;;;;;;27.48;11.63;;;;;;;-5.02;100.00;103113.06;5071935;28;20097;-47
2024/01/11 00:16:03;;;;;;;22.80;11.38;;;;;;;-5.07;100.00;103113.72;5071885;28;20111;-45
2024/01/11 00:18:33;;;;;;;26.27;11.75;;;;;;;-5.05;100.00;103115.53;5070533;28;20098;-47
2024/01/11 00:21:01;;;;;;;20.92;10.60;;;;;;;-5.10;100.00;103109.34;5066941;28;20098;-47
2024/01/11 00:23:30;;;;;;;23.52;11.23;;;;;;;-5.13;100.00;103114.38;5067282;28;20470;-45
2024/01/11 00:25:59;;;;;;;23.55;11.60;;;;;;;-5.11;100.00;103118.75;5069499;28;20048;-45
2024/01/11 00:28:28;;;;;;;25.40;10.68;;;;;;;-5.16;100.00;103119.41;5069513;28;20052;-46
2024/01/11 00:30:56;;;;;;;24.75;10.55;;;;;;;-5.18;100.00;103123.59;5068227;28;20042;-47
2024/01/11 00:33:26;;;;;;;26.27;11.13;;;;;;;-5.23;100.00;103125.13;5069443;28;20033;-45
2024/01/11 00:35:56;;;;;;;22.00;10.95;;;;;;;-5.22;100.00;103125.19;5071293;28;20045;-46
2024/01/11 00:38:25;;;;;;;23.08;11.07;;;;;;;-5.29;100.00;103126.66;5070022;28;20052;-47
2024/01/11 00:40:53;;;;;;;25.05;10.25;;;;;;;-5.32;100.00;103126.50;5070562;28;20110;-48
2024/01/11 00:43:21;;;;;;;22.35;11.15;;;;;;;-5.41;100.00;103131.31;5065649;28;20044;-50
2024/01/11 00:45:49;;;;;;;22.10;10.90;;;;;;;-5.44;100.00;103128.63;5069874;28;20496;-46
2024/01/11 00:48:18;;;;;;;23.10;10.38;;;;;;;-5.41;100.00;103133.88;5071143;28;20060;-46
2024/01/11 00:50:46;;;;;;;27.30;11.73;;;;;;;-5.41;100.00;103123.63;5068837;28;20050;-46
2024/01/11 00:53:16;;;;;;;21.58;9.50;;;;;;;-5.49;100.00;103120.75;5071172;28;20123;-48
2024/01/11 00:55:45;;;;;;;23.52;10.25;;;;;;;-5.48;100.00;103124.19;5070915;28;20064;-46
2024/01/11 00:58:13;;;;;;;23.10;10.80;;;;;;;-5.54;100.00;103117.13;5070936;28;20056;-45
2024/01/11 01:00:41;;;;;;;23.27;10.60;;;;;;;-5.55;100.00;103128.22;5071405;28;20055;-46
2024/01/11 01:03:09;;;;;;;24.23;10.48;;;;;;;-5.51;100.00;103117.25;5070877;28;20072;-47
2024/01/11 01:05:37;;;;;;;19.08;9.63;;;;;;;-5.51;100.00;103124.94;5070347;28;20123;-46
2024/01/11 01:08:08;;;;;;;21.52;10.00;;;;;;;-5.53;100.00;103120.59;5070847;28;20372;-45
2024/01/11 01:10:37;;;;;;;21.65;10.18;;;;;;;-5.54;100.00;103129.97;5071971;28;20040;-46
2024/01/11 01:13:06;;;;;;;23.00;10.38;;;;;;;-5.55;100.00;103123.06;5070881;28;20040;-47
2024/01/11 01:15:34;;;;;;;21.30;10.18;;;;;;;-5.54;100.00;103131.66;5071058;28;20036;-47
2024/01/11 01:18:02;;;;;;;22.55;10.13;;;;;;;-5.60;100.00;103135.75;5070309;28;20044;-48
2024/01/11 01:20:30;;;;;;;17.75;9.05;;;;;;;-5.58;100.00;103130.66;5069655;28;20058;-46
2024/01/11 01:22:59;;;;;;;23.90;10.32;;;;;;;-5.66;100.00;103127.81;5070687;28;20510;-46
2024/01/11 01:25:28;;;;;;;24.05;10.27;;;;;;;-5.60;100.00;103130.59;5070545;28;20036;-45
2024/01/11 01:28:00;;;;;;;20.30;10.48;;;;;;;-5.68;100.00;103126.88;5070732;28;20163;-48
2024/01/11 01:30:29;;;;;;;22.10;10.00;;;;;;;-5.71;100.00;103131.91;5070547;28;20086;-46
2024/01/11 01:32:57;;;;;;;19.58;9.77;;;;;;;-5.70;100.00;103136.22;5067324;28;20407;-47
2024/01/11 01:35:25;;;;;;;21.10;9.68;;;;;;;-5.71;100.00;103138.69;5067567;28;20089;-48
2024/01/11 01:37:56;;;;;;;20.95;10.48;;;;;;;-5.74;100.00;103142.00;5069985;28;20144;-48
2024/01/11 01:40:24;;;;;;;22.63;10.43;;;;;;;-5.78;100.00;103143.59;5069365;28;20057;-47
2024/01/11 01:43:00;;;;;;;22.13;10.40;;;;;;;-5.79;100.00;103131.59;5070739;28;20041;-47
2024/01/11 01:45:28;;;;;;;22.10;10.38;;;;;;;-5.72;100.00;103137.81;5073884;28;20491;-49
2024/01/11 01:47:57;;;;;;;23.75;10.65;;;;;;;-5.72;100.00;103140.38;5074725;28;20048;-46
2024/01/11 01:50:27;;;;;;;21.83;9.38;;;;;;;-5.75;100.00;103141.94;5074370;28;20399;-45
2024/01/11 01:52:59;;;;;;;24.23;10.95;;;;;;;-5.79;100.00;103146.97;5074495;28;20102;-48
2024/01/11 01:55:29;;;;;;;21.23;10.38;;;;;;;-5.81;100.00;103145.16;5074370;28;20036;-47
2024/01/11 01:58:00;;;;;;;25.88;10.57;;;;;;;-5.79;100.00;103146.09;5074438;28;20105;-46
2024/01/11 02:00:29;;;;;;;22.40;10.07;;;;;;;-5.84;100.00;103145.03;5074581;28;20119;-47
2024/01/11 02:02:59;;;;;;;23.05;10.32;;;;;;;-5.86;100.00;103141.53;5073442;28;20492;-49
2024/01/11 02:05:27;;;;;;;25.73;10.32;;;;;;;-5.89;100.00;103149.09;5074247;28;20086;-46
2024/01/11 02:07:56;;;;;;;25.00;9.95;;;;;;;-5.88;100.00;103138.91;5074282;28;20479;-46
2024/01/11 02:10:25;;;;;;;21.45;9.95;;;;;;;-5.90;100.00;103137.09;5071277;28;20041;-50
2024/01/11 02:12:54;;;;;;;22.13;10.02;;;;;;;-5.94;100.00;103142.09;5072100;28;20075;-48
2024/01/11 02:15:23;;;;;;;22.52;10.93;;;;;;;-5.96;100.00;103148.88;5074284;28;20503;-46
2024/01/11 02:17:51;;;;;;;23.15;10.45;;;;;;;-5.95;100.00;103157.44;5070342;28;20102;-46
2024/01/11 02:20:20;;;;;;;22.55;10.70;;;;;;;-5.98;100.00;103153.06;5073819;28;20044;-45
2024/01/11 02:22:54;;;;;;;24.08;10.82;;;;;;;-6.05;100.00;103145.97;5074012;28;20441;-46
2024/01/11 02:25:24;;;;;;;19.13;9.93;;;;;;;-6.02;100.00;103156.34;5074131;28;20049;-46
2024/01/11 02:27:52;;;;;;;21.15;10.48;;;;;;;-5.98;100.00;103154.78;5073919;28;20036;-46
2024/01/11 02:30:20;;;;;;;20.48;10.27;;;;;;;-6.05;100.00;103160.44;5072403;28;20044;-46
2024/01/11 02:32:50;;;;;;;20.45;10.80;;;;;;;-6.05;100.00;103160.44;5073856;28;20097;-46
2024/01/11 02:35:19;;;;;;;22.00;10.15;;;;;;;-6.06;100.00;103166.41;5065811;28;20456;-45
2024/01/11 02:37:49;;;;;;;24.40;11.35;;;;;;;-6.11;100.00;103155.94;5073805;28;20047;-47
2024/01/11 02:40:19;;;;;;;20.30;10.75;;;;;;;-6.09;100.00;103153.44;5073404;28;20102;-46
2024/01/11 02:42:49;;;;;;;26.00;10.52;;;;;;;-6.08;100.00;103148.41;5073792;28;20147;-46
2024/01/11 02:45:18;;;;;;;24.92;11.68;;;;;;;-6.15;100.00;103154.97;5074196;28;20044;-47
2024/01/11 02:47:47;;;;;;;20.73;9.57;;;;;;;-6.13;100.00;103150.75;5071225;28;20040;-49
2024/01/11 02:50:15;;;;;;;20.80;10.65;;;;;;;-6.13;100.00;103155.03;5073788;28;20361;-49
2024/01/11 02:52:43;;;;;;;24.27;10.85;;;;;;;-6.09;100.00;103145.75;5073683;28;20074;-48
2024/01/11 02:55:12;;;;;;;20.23;10.10;;;;;;;-6.16;100.00;103140.41;5074297;28;20052;-46
2024/01/11 02:57:42;;;;;;;22.35;10.38;;;;;;;-6.17;100.00;103135.22;5072628;28;20066;-48
2024/01/11 03:00:13;;;;;;;20.92;9.82;;;;;;;-6.16;100.00;103121.56;5073318;28;20127;-47
2024/01/11 03:02:41;;;;;;;21.50;9.57;;;;;;;-6.17;100.00;103132.66;5071879;28;20071;-48
2024/01/11 03:05:10;;;;;;;22.02;10.25;;;;;;;-6.16;100.00;103129.25;5073228;28;20438;-46
2024/01/11 03:07:39;;;;;;;19.27;10.48;;;;;;;-6.20;100.00;103128.28;5073048;28;20033;-47
2024/01/11 03:10:07;;;;;;;23.33;10.43;;;;;;;-6.22;100.00;103126.47;5073257;28;20090;-47
2024/01/11 03:12:36;;;;;;;19.30;9.90;;;;;;;-6.17;100.00;103119.84;5072903;28;20070;-46
2024/01/11 03:15:07;;;;;;;25.48;11.43;;;;;;;-6.22;100.00;103123.91;5073067;28;20562;-45
2024/01/11 03:17:37;;;;;;;23.27;11.13;;;;;;;-6.24;100.00;103125.50;5072930;28;20044;-46
2024/01/11 03:20:06;;;;;;;24.90;11.45;;;;;;;-6.30;100.00;103139.84;5072262;28;20052;-45
2024/01/11 03:22:34;;;;;;;23.45;10.43;;;;;;;-6.28;100.00;103145.03;5073064;28;20082;-44
2024/01/11 03:25:03;;;;;;;23.85;10.65;;;;;;;-6.32;100.00;103154.25;5070129;28;20051;-46
2024/01/11 03:27:31;;;;;;;22.83;10.65;;;;;;;-6.35;100.00;103154.13;5071510;28;20051;-46
2024/01/11 03:29:59;;;;;;;22.02;10.85;;;;;;;-6.38;100.00;103166.81;5073078;28;20062;-45
2024/01/11 03:32:28;;;;;;;21.70;10.60;;;;;;;-6.36;100.00;103160.06;5070703;28;20047;-45
2024/01/11 03:34:58;;;;;;;24.30;11.57;;;;;;;-6.36;100.00;103156.63;5072931;28;20079;-46
2024/01/11 03:37:27;;;;;;;22.30;10.68;;;;;;;-6.34;100.00;103161.00;5072756;28;20039;-45
2024/01/11 03:39:55;;;;;;;21.23;10.77;;;;;;;-6.32;100.00;103153.38;5071874;28;20048;-47
2024/01/11 03:42:24;;;;;;;23.40;11.63;;;;;;;-6.35;100.00;103159.25;5072766;28;20044;-46
2024/01/11 03:44:52;;;;;;;21.55;10.60;;;;;;;-6.33;100.00;103152.50;5071432;28;21137;-46
2024/01/11 03:47:20;;;;;;;26.55;11.23;;;;;;;-6.36;100.00;103147.25;5070297;28;20043;-46
2024/01/11 03:49:49;;;;;;;33.92;11.48;;;;;;;-6.34;100.00;103150.78;5069270;28;20135;-44
2024/01/11 03:52:19;;;;;;;21.98;10.52;;;;;;;-6.34;100.00;103140.53;5070463;28;20139;-44
2024/01/11 03:54:47;;;;;;;22.92;11.20;;;;;;;-6.37;100.00;103147.19;5072292;28;20124;-45
2024/01/11 03:57:17;;;;;;;26.17;11.65;;;;;;;-6.39;100.00;103146.25;5071454;28;20048;-45
2024/01/11 03:59:45;;;;;;;23.15;11.05;;;;;;;-6.41;100.00;103146.19;5071818;28;20057;-47
2024/01/11 04:02:14;;;;;;;24.40;11.65;;;;;;;-6.40;100.00;103157.31;5068327;28;20037;-46
2024/01/11 04:04:42;;;;;;;22.35;10.07;;;;;;;-6.40;100.00;103163.31;5068823;28;20068;-49
2024/01/11 04:07:10;;;;;;;21.58;11.10;;;;;;;-6.37;100.00;103171.09;5070867;28;20041;-48
2024/01/11 04:09:40;;;;;;;24.08;11.25;;;;;;;-6.35;100.00;103172.06;5071617;28;20071;-45
2024/01/11 04:12:09;;;;;;;21.13;11.02;;;;;;;-6.43;100.00;103170.88;5069097;28;20049;-49
2024/01/11 04:14:39;;;;;;;24.75;11.68;;;;;;;-6.47;100.00;103177.53;5068179;28;20045;-49
2024/01/11 04:17:08;;;;;;;24.80;11.52;;;;;;;-6.48;100.00;103177.47;5065228;28;20048;-48
2024/01/11 04:19:36;;;;;;;25.05;12.02;;;;;;;-6.43;100.00;103175.97;5068566;28;20131;-46
2024/01/11 04:22:04;;;;;;;24.02;10.88;;;;;;;-6.46;100.00;103181.84;5071569;28;20063;-51
2024/01/11 04:24:32;;;;;;;21.90;11.32;;;;;;;-6.52;100.00;103179.00;5068831;28;20044;-51
2024/01/11 04:27:04;;;;;;;23.25;11.73;;;;;;;-6.57;100.00;103188.19;5068067;28;20048;-47
2024/01/11 04:29:38;;;;;;;25.38;11.15;;;;;;;-6.59;100.00;103197.50;5070986;28;20047;-49
2024/01/11 04:32:06;;;;;;;23.33;11.45;;;;;;;-6.65;100.00;103194.69;5067890;28;20129;-51
2024/01/11 04:34:35;;;;;;;24.25;11.88;;;;;;;-6.64;100.00;103196.41;5065798;28;20403;-49
2024/01/11 04:37:03;;;;;;;22.15;11.80;;;;;;;-6.64;100.00;103196.41;5070502;28;20041;-50
2024/01/11 04:39:32;;;;;;;26.20;12.77;;;;;;;-6.63;100.00;103199.03;5068784;28;20061;-49
2024/01/11 04:42:02;;;;;;;22.15;11.85;;;;;;;-6.64;100.00;103201.53;5071095;28;20055;-50
2024/01/11 04:44:31;;;;;;;24.38;12.57;;;;;;;-6.67;100.00;103206.53;5071419;28;20139;-51
2024/01/11 04:46:59;;;;;;;24.27;12.02;;;;;;;-6.65;100.00;103210.03;5071286;28;20034;-51
2024/01/11 04:49:28;;;;;;;28.02;12.50;;;;;;;-6.68;100.00;103208.22;5069676;28;20052;-47
2024/01/11 04:51:56;;;;;;;27.05;12.68;;;;;;;-6.69;100.00;103203.03;5068866;28;20052;-45
2024/01/11 04:54:24;;;;;;;22.42;11.65;;;;;;;-6.62;100.00;103207.59;5070064;28;20116;-48
2024/01/11 04:56:52;;;;;;;27.13;13.02;;;;;;;-6.62;100.00;103193.09;5070909;28;20098;-46
2024/01/11 04:59:20;;;;;;;25.92;11.77;;;;;;;-6.62;100.00;103198.22;5071105;28;20860;-48
2024/01/11 05:01:50;;;;;;;25.20;12.57;;;;;;;-6.63;100.00;103198.16;5072083;28;20121;-47
2024/01/11 05:04:18;;;;;;;27.45;13.48;;;;;;;-6.65;100.00;103204.91;5072312;28;20050;-45
2024/01/11 05:06:46;;;;;;;26.58;12.52;;;;;;;-6.71;100.00;103199.50;5073205;28;20573;-45
2024/01/11 05:09:15;;;;;;;24.85;11.75;;;;;;;-6.66;100.00;103196.34;5072003;28;20476;-45
2024/01/11 05:11:46;;;;;;;27.45;14.23;;;;;;;-6.64;100.00;103212.66;5072033;28;20114;-45
2024/01/11 05:14:14;;;;;;;26.13;12.88;;;;;;;-6.65;100.00;103208.34;5071949;28;20044;-45
2024/01/11 05:16:46;;;;;;;27.63;12.87;;;;;;;-6.66;100.00;103198.03;5072044;28;20102;-46
2024/01/11 05:19:16;;;;;;;29.92;13.63;;;;;;;-6.60;100.00;103207.66;5071555;28;20044;-45
2024/01/11 05:21:44;;;;;;;24.27;12.70;;;;;;;-6.67;100.00;103204.81;5072118;28;20446;-46
2024/01/11 05:24:13;;;;;;;27.48;12.55;;;;;;;-6.70;100.00;103201.28;5071779;28;20076;-45
2024/01/11 05:26:41;;;;;;;26.15;12.48;;;;;;;-6.68;100.00;103204.75;5071837;28;20044;-44
2024/01/11 05:29:09;;;;;;;28.50;12.55;;;;;;;-6.68;100.00;103200.53;5076323;28;20571;-48
2024/01/11 05:31:37;;;;;;;25.58;13.13;;;;;;;-6.67;100.00;103189.47;5067947;28;20047;-45
2024/01/11 05:34:06;;;;;;;24.80;13.02;;;;;;;-6.63;100.00;103193.91;5064372;28;20143;-45
2024/01/11 05:36:36;;;;;;;28.10;12.45;;;;;;;-6.63;100.00;103182.81;5069001;28;20098;-47
2024/01/11 05:39:04;;;;;;;29.88;14.60;;;;;;;-6.61;100.00;103176.06;5070607;28;20040;-45
2024/01/11 05:41:32;;;;;;;27.90;13.15;;;;;;;-6.66;100.00;103180.13;5070924;28;20506;-49
2024/01/11 05:44:00;;;;;;;26.88;13.07;;;;;;;-6.69;100.00;103190.22;5070451;28;20040;-45
2024/01/11 05:46:29;;;;;;;24.60;12.95;;;;;;;-6.69;100.00;103195.34;5070331;28;20470;-45
2024/01/11 05:49:01;;;;;;;28.90;13.95;;;;;;;-6.73;100.00;103183.22;5070712;28;20530;-46
2024/01/11 05:51:32;;;;;;;28.15;14.00;;;;;;;-6.67;100.00;103180.91;5070886;28;20522;-46
2024/01/11 05:54:05;;;;;;;27.27;13.67;;;;;;;-6.70;100.00;103178.22;5070733;28;20060;-46
2024/01/11 05:56:33;;;;;;;29.98;14.32;;;;;;;-6.64;100.00;103187.06;5070311;28;20047;-45
2024/01/11 05:59:01;;;;;;;26.98;13.27;;;;;;;-6.68;100.00;103184.28;5070134;28;20113;-47
2024/01/11 06:01:29;;;;;;;28.13;14.05;;;;;;;-6.62;100.00;103185.41;5070372;28;20043;-46
2024/01/11 06:03:57;;;;;;;25.70;13.20;;;;;;;-6.66;100.00;103200.59;5070292;28;20045;-48
2024/01/11 06:06:26;;;;;;;27.48;13.18;;;;;;;-6.64;100.00;103201.53;5070392;28;20123;-46
2024/01/11 06:08:54;;;;;;;29.88;14.38;;;;;;;-6.69;100.00;103203.03;5070694;28;20044;-47
2024/01/11 06:11:25;;;;;;;27.02;14.48;;;;;;;-6.70;100.00;103196.16;5070468;28;20045;-47
2024/01/11 06:13:54;;;;;;;30.90;14.13;;;;;;;-6.71;100.00;103200.38;5070335;28;20056;-45
2024/01/11 06:16:22;;;;;;;28.40;14.70;;;;;;;-6.66;100.00;103204.03;5070059;28;20999;-46
2024/01/11 06:18:51;;;;;;;27.77;14.32;;;;;;;-6.70;100.00;103212.38;5069742;28;20044;-45
2024/01/11 06:21:20;;;;;;;29.35;15.15;;;;;;;-6.70;100.00;103232.00;5070456;28;20052;-45
2024/01/11 06:23:48;;;;;;;25.42;14.70;;;;;;;-6.72;100.00;103247.28;5070072;28;20052;-46
2024/01/11 06:26:17;;;;;;;28.10;15.35;;;;;;;-6.75;100.00;103267.59;5070220;28;20036;-45
2024/01/11 06:28:46;;;;;;;33.10;16.15;;;;;;;-6.77;100.00;103264.13;5069889;28;20033;-47
2024/01/11 06:31:14;;;;;;;29.73;15.40;;;;;;;-6.78;100.00;103256.38;5068930;28;20036;-48
2024/01/11 06:33:42;;;;;;;32.80;17.17;;;;;;;-6.78;100.00;103258.94;5071500;28;20511;-52
2024/01/11 06:36:12;;;;;;;31.50;15.95;;;;;;;-6.77;100.00;103246.19;5070043;28;20048;-50
2024/01/11 06:38:41;;;;;;;31.38;17.15;;;;;;;-6.80;100.00;103262.28;5072701;28;20089;-50
2024/01/11 06:41:12;;;;;;;31.45;16.65;;;;;;;-6.78;100.00;103259.78;5073349;28;20037;-49
2024/01/11 06:43:40;;;;;;;33.40;16.95;;;;;;;-6.71;100.00;103255.81;5070109;28;20115;-49
2024/01/11 06:46:10;;;;;;;30.95;16.23;;;;;;;-6.69;100.00;103254.22;5069503;28;20749;-50
2024/01/11 06:48:38;;;;;;;30.02;15.93;;;;;;;-6.71;100.00;103251.56;5069162;28;20120;-52
2024/01/11 06:51:08;;;;;;;27.52;15.75;;;;;;;-6.67;100.00;103261.13;5070367;28;20547;-48
2024/01/11 06:53:37;;;;;;;33.33;16.02;;;;;;;-6.67;100.00;103255.16;5072031;28;20106;-52
2024/01/11 06:56:15;;;;;;;33.72;15.75;;;;;;;-6.60;100.00;103269.97;5073381;28;20064;-50
2024/01/11 06:58:44;;;;;;;33.85;17.48;;;;;;;-6.59;100.00;103268.31;5069554;28;20052;-49
2024/01/11 07:01:14;;;;;;;28.77;15.15;;;;;;;-6.63;100.00;103278.38;5068835;28;20056;-48
2024/01/11 07:03:42;;;;;;;32.63;16.67;;;;;;;-6.66;100.00;103288.50;5069764;28;21432;-51
2024/01/11 07:06:11;;;;;;;31.92;15.35;;;;;;;-6.67;100.00;103278.19;5067991;28;20040;-48
2024/01/11 07:08:39;;;;;;;32.20;15.80;;;;;;;-6.68;100.00;103286.69;5069777;28;20044;-49
2024/01/11 07:11:08;;;;;;;35.33;17.20;;;;;;;-6.63;100.00;103290.31;5070726;28;20439;-49
2024/01/11 07:13:36;;;;;;;32.70;15.93;;;;;;;-6.65;100.00;103282.59;5073511;28;20059;-51
2024/01/11 07:16:06;;;;;;;29.63;15.00;;;;;;;-6.64;100.00;103284.34;5073607;28;20054;-49
2024/01/11 07:18:35;;;;;;;31.85;15.50;;;;;;;-6.63;100.00;103269.84;5074307;28;20086;-48
2024/01/11 07:21:04;;;;;;;32.45;16.27;;;;;;;-6.57;100.00;103276.94;5073040;28;20050;-49
2024/01/11 07:23:32;;;;;;;34.10;17.17;;;;;;;-6.62;100.00;103261.38;5070247;28;20521;-48
2024/01/11 07:26:00;;;;;;;34.38;16.25;;;;;;;-6.63;100.00;103260.47;5070563;28;20058;-49
2024/01/11 07:28:29;;;;;;;32.78;16.63;;;;;;;-6.60;100.00;103254.63;5068619;28;20110;-49
2024/01/11 07:30:57;;;;;;;34.10;16.98;;;;;;;-6.56;100.00;103245.41;5071732;28;20045;-48
2024/01/11 07:33:25;;;;;;;34.78;17.25;;;;;;;-6.59;100.00;103241.00;5074187;28;20101;-49
2024/01/11 07:35:58;;;;;;;32.22;17.27;;;;;;;-6.60;100.00;103244.38;5073958;28;20519;-49
2024/01/11 07:38:27;;;;;;;34.25;17.35;;;;;;;-6.62;100.00;103248.56;5073630;28;20495;-52
2024/01/11 07:40:55;;;;;;;33.55;16.30;;;;;;;-6.67;100.00;103263.69;5073553;28;20037;-45
2024/01/11 07:43:23;;;;;;;31.60;16.58;;;;;;;-6.71;100.00;103264.38;5073452;28;20060;-51
2024/01/11 07:45:58;;;;;;;31.92;16.40;;;;;;;-6.72;100.00;103254.97;5070026;28;20049;-47
2024/01/11 07:48:28;;;;;;;36.30;16.35;;;;;;;-6.73;100.00;103258.31;5071175;28;20072;-46
2024/01/11 07:50:58;;;;;;;33.70;16.20;;;;;;;-6.75;100.00;103257.38;5073394;28;20110;-46
2024/01/11 07:53:28;;;;;;;33.03;16.02;;;;;;;-6.75;100.00;103253.94;5073683;28;20044;-48
2024/01/11 07:56:01;;;;;;;36.28;16.35;;;;;;;-6.76;100.00;103242.84;5073397;28;20079;-47
2024/01/11 07:58:29;;;;;;;30.80;15.68;;;;;;;-6.76;100.00;103247.94;5072228;28;20091;-48
2024/01/11 08:00:57;;;;;;;36.10;17.67;;;;;;;-6.79;100.00;103252.91;5068193;28;20048;-51
2024/01/11 08:03:27;;;;;;;33.88;15.85;;;;;;;-6.77;100.00;103247.88;5070699;28;20053;-52
2024/01/11 08:05:55;;;;;;;34.90;16.80;;;;;;;-6.77;100.00;103253.88;5073586;28;20658;-50
2024/01/11 08:08:26;;;;;;;32.00;17.10;;;;;;;-6.81;100.00;103251.97;5071441;28;20055;-53
2024/01/11 08:10:54;;;;;;;33.85;16.83;;;;;;;-6.83;100.00;103264.72;5068453;28;20072;-52
2024/01/11 08:13:22;;;;;;;31.15;16.90;;;;;;;-6.84;100.00;103277.44;5069479;28;20044;-47
2024/01/11 08:15:51;;;;;;;36.67;17.58;;;;;;;-6.85;100.00;103280.81;5070373;28;20063;-52
2024/01/11 08:18:19;;;;;;;36.83;16.70;;;;;;;-6.84;100.00;103262.09;5068170;28;20559;-53
2024/01/11 08:20:48;;;;;;;36.75;17.20;;;;;;;-6.82;100.00;103258.75;5071732;28;20492;-48
2024/01/11 08:23:17;;;;;;;31.60;16.63;;;;;;;-6.73;100.00;103268.56;5072308;28;20043;-47
2024/01/11 08:25:46;;;;;;;34.78;17.58;;;;;;;-6.62;100.00;103261.38;5092445;28;20506;-48
2024/01/11 08:28:15;;;;;;;33.70;17.95;;;;;;;-6.53;100.00;103271.13;5089175;28;20139;-51
2024/01/11 08:30:43;;;;;;;33.10;17.30;;;;;;;-6.49;100.00;103276.47;5089528;28;20048;-51
2024/01/11 08:33:11;;;;;;;34.13;17.20;;;;;;;-6.34;100.00;103268.59;5087952;28;20060;-51
2024/01/11 08:35:41;;;;;;;33.85;17.40;;;;;;;-6.16;100.00;103280.41;5092319;28;20066;-50
2024/01/11 08:38:10;;;;;;;35.42;17.67;;;;;;;-5.86;100.00;103278.28;5093113;28;20071;-49
2024/01/11 08:40:39;;;;;;;33.95;17.63;;;;;;;-5.78;100.00;103283.69;5092978;28;20029;-50
2024/01/11 08:43:08;;;;;;;31.85;17.00;;;;;;;-5.55;100.00;103286.34;5092752;28;20071;-49
2024/01/11 08:45:36;;;;;;;34.67;17.88;;;;;;;-5.36;100.00;103288.84;5092725;28;20044;-48
2024/01/11 08:48:05;;;;;;;34.70;16.80;;;;;;;-5.07;100.00;103288.25;5092644;28;20568;-51
2024/01/11 08:50:34;;;;;;;33.63;17.33;;;;;;;-4.91;100.00;103300.84;5088963;28;20514;-50
2024/01/11 08:53:02;;;;;;;33.33;17.10;;;;;;;-4.88;100.00;103297.53;5077971;28;20047;-47
2024/01/11 08:55:30;;;;;;;36.83;16.98;;;;;;;-4.80;100.00;103296.13;5067652;28;20033;-49
2024/01/11 08:57:58;;;;;;;33.67;17.20;;;;;;;-4.68;100.00;103301.72;5066506;28;20054;-48
2024/01/11 09:00:28;;;;;;;35.13;17.52;;;;;;;-4.56;100.00;103308.16;5069992;28;20516;-48
2024/01/11 09:02:57;;;;;;;36.60;18.88;;;;;;;-4.45;100.00;103315.41;5066726;28;20063;-49
2024/01/11 09:05:28;;;;;;;36.60;19.05;;;;;;;-4.43;100.00;103320.63;5067691;28;20064;-48
2024/01/11 09:07:56;;;;;;;33.92;18.70;;;;;;;-4.24;100.00;103317.00;5068912;28;20040;-48
2024/01/11 09:10:25;;;;;;;35.03;18.58;;;;;;;-4.11;100.00;103316.63;5070877;28;20072;-47
2024/01/11 09:12:53;;;;;;;32.05;16.70;;;;;;;-3.97;100.00;103317.13;5070899;28;20124;-50
2024/01/11 09:15:22;;;;;;;36.28;18.60;;;;;;;-3.95;100.00;103320.63;5070677;28;20056;-48
2024/01/11 09:17:51;;;;;;;41.40;18.98;;;;;;;-3.90;100.00;103325.91;5069327;28;20060;-52
2024/01/11 09:20:20;;;;;;;32.63;18.33;;;;;;;-3.80;100.00;103316.84;5065967;28;20084;-51
2024/01/11 09:22:48;;;;;;;36.75;19.15;;;;;;;-3.78;100.00;103323.78;5064432;28;20467;-53
2024/01/11 09:25:17;;;;;;;39.72;20.00;;;;;;;-3.77;100.00;103327.25;5067022;28;20123;-50
2024/01/11 09:27:45;;;;;;;37.38;20.73;;;;;;;-3.80;100.00;103334.84;5067990;28;20052;-53
2024/01/11 09:30:13;;;;;;;36.28;18.98;;;;;;;-3.72;100.00;103336.00;5070397;28;20399;-48
2024/01/11 09:32:42;;;;;;;39.97;20.02;;;;;;;-3.64;100.00;103326.84;5067499;28;20044;-48
2024/01/11 09:35:12;;;;;;;34.28;18.52;;;;;;;-3.64;100.00;103334.56;5065055;28;20147;-48
2024/01/11 09:37:45;;;;;;;35.28;17.70;;;;;;;-3.62;100.00;103350.91;5066379;28;20407;-50
2024/01/11 09:40:14;;;;;;;35.78;18.92;;;;;;;-3.64;100.00;103354.25;5067576;28;20551;-50
2024/01/11 09:42:42;;;;;;;33.40;17.35;;;;;;;-3.59;100.00;103345.84;5068081;28;20060;-48
2024/01/11 09:45:15;;;;;;;33.78;17.35;;;;;;;-3.58;100.00;103344.19;5068169;28;20102;-50
2024/01/11 09:47:45;;;;;;;32.55;16.88;;;;;;;-3.61;100.00;103346.66;5071118;28;20499;-50
2024/01/11 09:50:17;;;;;;;32.42;17.13;;;;;;;-3.57;100.00;103351.94;5070974;28;20521;-49
2024/01/11 09:52:48;;;;;;;33.53;17.85;;;;;;;-3.35;100.00;103364.63;5067665;28;20088;-52
2024/01/11 09:55:17;;;;;;;30.27;16.27;;;;;;;-3.43;100.00;103374.69;5067613;28;20054;-52
2024/01/11 09:57:46;;;;;;;35.38;17.48;;;;;;;-3.44;100.00;103376.38;5067934;28;20053;-50
2024/01/11 10:00:18;;;;;;;33.25;17.75;;;;;;;-3.53;100.00;103386.38;5070552;28;20048;-50
2024/01/11 10:02:47;;;;;;;36.05;18.15;;;;;;;-3.43;100.00;103378.13;5070587;28;20050;-51
2024/01/11 10:05:18;;;;;;;33.42;17.55;;;;;;;-3.36;100.00;103376.63;5069174;28;20048;-50
2024/01/11 10:07:47;;;;;;;37.95;18.65;;;;;;;-3.17;100.00;103372.09;5074717;28;20079;-52
2024/01/11 10:10:16;;;;;;;35.05;18.63;;;;;;;-2.98;100.00;103374.44;5072821;28;20043;-51
2024/01/11 10:12:44;;;;;;;35.65;18.80;;;;;;;-2.92;100.00;103369.50;5074007;28;20051;-53
2024/01/11 10:15:14;;;;;;;37.13;17.92;;;;;;;-2.80;100.00;103374.13;5074324;28;20541;-53
2024/01/11 10:17:44;;;;;;;35.45;17.77;;;;;;;-2.77;100.00;103370.78;5074312;28;20059;-53
2024/01/11 10:20:13;;;;;;;32.75;17.85;;;;;;;-2.77;100.00;103381.09;5069001;28;20032;-52
2024/01/11 10:22:44;;;;;;;35.63;18.42;;;;;;;-2.80;100.00;103368.13;5071741;28;20461;-51
2024/01/11 10:25:14;;;;;;;35.05;18.30;;;;;;;-2.89;100.00;103376.41;5073042;28;20072;-49
2024/01/11 10:27:42;;;;;;;31.85;17.40;;;;;;;-3.06;100.00;103378.47;5071309;28;20048;-52
2024/01/11 10:30:12;;;;;;;32.20;16.95;;;;;;;-3.03;100.00;103380.28;5069964;28;20399;-49
2024/01/11 10:32:41;;;;;;;33.08;18.35;;;;;;;-3.12;100.00;103367.97;5069806;28;20098;-51
2024/01/11 10:35:12;;;;;;;31.58;17.25;;;;;;;-3.23;100.00;103367.66;5073964;28;20460;-50
2024/01/11 10:37:40;;;;;;;32.83;17.40;;;;;;;-3.19;100.00;103358.31;5072058;28;20044;-47
2024/01/11 10:40:12;;;;;;;31.58;16.17;;;;;;;-3.23;100.00;103368.50;5074077;28;20541;-46
2024/01/11 10:42:42;;;;;;;;;;;;;;;-3.20;100.00;103362.59;5073933;28;20045;-46
2024/01/11 10:45:15;;;;;;;29.40;15.40;;;;;;;-3.21;100.00;103357.38;5073622;28;19950;-46
2024/01/11 10:47:54;;;;;;;33.60;16.60;;;;;;;-3.20;100.00;103354.84;5073285;28;20056;-46
2024/01/11 10:50:31;;;;;;;27.67;14.32;;;;;;;-3.17;100.00;103354.09;5068887;28;20543;-45
2024/01/11 10:53:04;;;;;;;24.33;13.68;;;;;;;-3.12;100.00;103360.22;5071538;28;20048;-46
2024/01/11 10:55:35;;;;;;;27.35;14.07;;;;;;;-3.26;100.00;103370.97;5071255;28;20051;-46
2024/01/11 10:58:05;;;;;;;26.50;12.75;;;;;;;-3.24;100.00;103373.59;5073190;28;20063;-47
2024/01/11 11:00:36;;;;;;;22.75;11.07;;;;;;;-3.22;100.00;103387.38;5074082;28;20091;-46
2024/01/11 11:03:07;;;;;;;22.95;10.95;;;;;;;-3.14;100.00;103390.22;5070602;28;20049;-45
2024/01/11 11:05:36;;;;;;;25.10;10.38;;;;;;;-3.16;100.00;103400.47;5070533;28;20067;-45
2024/01/11 11:08:06;;;;;;;22.90;10.20;;;;;;;-3.16;100.00;103409.88;5070833;28;20048;-45
2024/01/11 11:10:47;;;;;;;25.00;10.85;;;;;;;-3.18;100.00;103414.13;5072176;28;20140;-46